createdAt,value
2022-11-23T00:00:11.423Z,23.99
2022-11-23T00:02:38.238Z,23.98
2022-11-23T00:05:05.961Z,23.97
2022-11-23T00:07:32.917Z,23.97
2022-11-23T00:09:59.711Z,23.96
2022-11-23T00:12:26.460Z,23.94
2022-11-23T00:14:53.262Z,23.96
2022-11-23T00:17:21.365Z,23.95
2022-11-23T00:19:48.139Z,23.95
2022-11-23T00:22:14.932Z,23.94
2022-11-23T00:24:41.716Z,23.93
2022-11-23T00:27:08.662Z,23.94
2022-11-23T00:29:35.405Z,23.94
2022-11-23T00:32:02.191Z,23.93
2022-11-23T00:34:30.376Z,23.91
2022-11-23T00:36:57.121Z,23.91
2022-11-23T00:39:23.975Z,23.90
2022-11-23T00:41:50.881Z,23.89
2022-11-23T00:44:17.839Z,23.89
2022-11-23T00:46:44.594Z,23.90
2022-11-23T00:49:11.430Z,23.91
2022-11-23T00:51:39.578Z,23.89
2022-11-23T00:54:09.790Z,23.89
2022-11-23T00:56:36.562Z,23.88
2022-11-23T00:59:03.723Z,23.87
2022-11-23T01:01:34.036Z,23.86
2022-11-23T01:04:02.355Z,23.86
2022-11-23T01:06:31.456Z,23.85
2022-11-23T01:09:02.392Z,23.87
2022-11-23T01:11:31.158Z,23.87
2022-11-23T01:13:58.439Z,23.83
2022-11-23T01:16:28.592Z,23.84
2022-11-23T01:18:56.516Z,23.84
2022-11-23T01:21:24.453Z,23.82
2022-11-23T01:23:51.665Z,23.83
2022-11-23T01:26:20.624Z,23.82
2022-11-23T01:28:47.703Z,23.82
2022-11-23T01:31:16.167Z,23.82
2022-11-23T01:33:45.374Z,23.84
2022-11-23T01:36:13.530Z,23.82
2022-11-23T01:38:40.684Z,23.82
2022-11-23T01:41:08.628Z,23.81
2022-11-23T01:43:36.994Z,23.80
2022-11-23T01:46:04.500Z,23.80
2022-11-23T01:48:36.640Z,23.82
2022-11-23T01:51:06.509Z,23.80
2022-11-23T01:53:36.451Z,23.78
2022-11-23T01:56:06.631Z,23.80
2022-11-23T01:58:39.491Z,23.79
2022-11-23T02:01:07.204Z,23.76
2022-11-23T02:03:36.590Z,23.78
2022-11-23T02:06:12.015Z,23.78
2022-11-23T02:08:39.538Z,23.79
2022-11-23T02:11:07.526Z,23.80
2022-11-23T02:13:34.329Z,23.79
2022-11-23T02:16:04.670Z,23.79
2022-11-23T02:18:32.977Z,23.78
2022-11-23T02:21:02.048Z,23.79
2022-11-23T02:23:39.178Z,23.75
2022-11-23T02:26:11.150Z,23.75
2022-11-23T02:28:45.313Z,23.76
2022-11-23T02:31:12.119Z,23.75
2022-11-23T02:33:39.305Z,23.74
2022-11-23T02:36:35.574Z,23.76
2022-11-23T02:39:11.757Z,23.75
2022-11-23T02:41:42.491Z,23.74
2022-11-23T02:44:19.011Z,23.75
2022-11-23T02:46:46.174Z,23.73
2022-11-23T02:49:14.631Z,23.74
2022-11-23T02:51:41.416Z,23.73
2022-11-23T02:54:08.232Z,23.73
2022-11-23T02:56:36.891Z,23.72
2022-11-23T02:59:05.587Z,23.71
2022-11-23T03:01:32.514Z,23.72
2022-11-23T03:03:59.400Z,23.73
2022-11-23T03:06:29.017Z,23.73
2022-11-23T03:08:56.312Z,23.73
2022-11-23T03:11:23.360Z,23.73
2022-11-23T03:13:50.232Z,23.71
2022-11-23T03:16:21.540Z,23.72
2022-11-23T03:18:48.845Z,23.72
2022-11-23T03:21:15.648Z,23.71
2022-11-23T03:23:42.474Z,23.72
2022-11-23T03:26:13.181Z,23.70
2022-11-23T03:28:48.621Z,23.71
2022-11-23T03:31:16.509Z,23.72
2022-11-23T03:33:48.366Z,23.69
2022-11-23T03:36:15.232Z,23.69
2022-11-23T03:38:46.007Z,23.70
2022-11-23T03:41:32.761Z,23.68
2022-11-23T03:43:59.986Z,23.68
2022-11-23T03:46:27.339Z,23.67
2022-11-23T03:48:55.505Z,23.68
2022-11-23T03:51:23.106Z,23.68
2022-11-23T03:53:49.995Z,23.68
2022-11-23T03:56:17.569Z,23.66
2022-11-23T03:58:46.602Z,23.67
2022-11-23T04:01:14.563Z,23.66
2022-11-23T04:03:44.062Z,23.66
2022-11-23T04:06:19.258Z,23.66
2022-11-23T04:09:01.703Z,23.66
2022-11-23T04:11:47.714Z,23.66
2022-11-23T04:14:14.520Z,23.64
2022-11-23T04:16:43.031Z,23.63
2022-11-23T04:19:10.774Z,23.64
2022-11-23T04:21:38.925Z,23.65
2022-11-23T04:24:06.774Z,23.63
2022-11-23T04:26:36.002Z,23.64
2022-11-23T04:29:02.904Z,23.63
2022-11-23T04:31:31.627Z,23.65
2022-11-23T04:34:24.259Z,23.62
2022-11-23T04:36:54.685Z,23.63
2022-11-23T04:39:27.543Z,23.62
2022-11-23T04:42:15.188Z,23.62
2022-11-23T04:44:48.123Z,23.62
2022-11-23T04:47:15.331Z,23.61
2022-11-23T04:49:45.418Z,23.61
2022-11-23T04:52:13.606Z,23.63
2022-11-23T04:54:47.971Z,23.61
2022-11-23T04:57:15.232Z,23.60
2022-11-23T04:59:43.732Z,23.59
2022-11-23T05:02:10.602Z,23.61
2022-11-23T05:04:49.191Z,23.60
2022-11-23T05:07:18.681Z,23.59
2022-11-23T05:09:52.433Z,23.59
2022-11-23T05:12:21.334Z,23.59
2022-11-23T05:14:48.112Z,23.58
2022-11-23T05:17:20.278Z,23.59
2022-11-23T05:19:48.320Z,23.59
2022-11-23T05:22:15.172Z,23.58
2022-11-23T05:24:44.455Z,23.59
2022-11-23T05:27:15.728Z,23.58
2022-11-23T05:29:42.521Z,23.58
2022-11-23T05:32:09.283Z,23.59
2022-11-23T05:34:36.072Z,23.58
2022-11-23T05:37:04.402Z,23.58
2022-11-23T05:39:31.619Z,23.62
2022-11-23T05:42:01.709Z,23.64
2022-11-23T05:44:38.624Z,23.67
2022-11-23T05:47:08.381Z,23.70
2022-11-23T05:49:36.643Z,23.74
2022-11-23T05:52:06.003Z,23.79
2022-11-23T05:54:33.362Z,23.81
2022-11-23T05:57:07.055Z,23.86
2022-11-23T05:59:39.337Z,23.91
2022-11-23T06:02:07.975Z,23.95
2022-11-23T06:04:36.130Z,23.99
2022-11-23T06:07:05.352Z,24.02
2022-11-23T06:09:48.143Z,24.07
2022-11-23T06:12:16.297Z,24.11
2022-11-23T06:14:43.088Z,24.16
2022-11-23T06:17:10.685Z,24.22
2022-11-23T06:19:46.961Z,24.25
2022-11-23T06:22:15.312Z,24.28
2022-11-23T06:24:50.358Z,24.32
2022-11-23T06:27:30.559Z,24.35
2022-11-23T06:29:58.310Z,24.37
2022-11-23T06:32:27.422Z,24.40
2022-11-23T06:34:58.077Z,24.41
2022-11-23T06:37:29.285Z,24.42
2022-11-23T06:39:56.136Z,24.45
2022-11-23T06:42:38.412Z,24.44
2022-11-23T06:45:10.456Z,24.45
2022-11-23T06:47:37.962Z,24.44
2022-11-23T06:50:06.049Z,24.46
2022-11-23T06:52:33.187Z,24.46
2022-11-23T06:54:59.999Z,24.46
2022-11-23T06:57:26.816Z,24.45
2022-11-23T06:59:54.707Z,24.43
2022-11-23T07:02:28.649Z,24.43
2022-11-23T07:04:57.747Z,24.43
2022-11-23T07:07:25.726Z,24.42
2022-11-23T07:10:06.632Z,24.42
2022-11-23T07:12:42.517Z,24.39
2022-11-23T07:15:10.310Z,24.40
2022-11-23T07:17:40.885Z,24.39
2022-11-23T07:20:11.250Z,24.38
2022-11-23T07:22:38.681Z,24.36
2022-11-23T07:25:06.340Z,24.35
2022-11-23T07:27:33.225Z,24.33
2022-11-23T07:30:02.014Z,24.30
2022-11-23T07:32:28.793Z,24.27
2022-11-23T07:34:56.959Z,24.27
2022-11-23T07:37:24.623Z,24.26
2022-11-23T07:39:57.737Z,24.25
2022-11-23T07:42:34.567Z,24.22
2022-11-23T07:45:03.346Z,24.22
2022-11-23T07:47:30.187Z,24.22
2022-11-23T07:49:58.347Z,24.23
2022-11-23T07:52:25.150Z,24.24
2022-11-23T07:54:51.939Z,24.23
2022-11-23T07:57:18.700Z,24.24
2022-11-23T07:59:45.602Z,24.28
2022-11-23T08:02:14.911Z,24.30
2022-11-23T08:04:41.722Z,24.32
2022-11-23T08:07:09.987Z,24.32
2022-11-23T08:09:36.970Z,24.32
2022-11-23T08:12:04.009Z,24.30
2022-11-23T08:14:31.188Z,24.29
2022-11-23T08:16:58.142Z,24.27
2022-11-23T08:19:24.955Z,24.26
2022-11-23T08:21:51.793Z,24.26
2022-11-23T08:24:19.895Z,24.26
2022-11-23T08:26:46.717Z,24.25
2022-11-23T08:29:13.529Z,24.24
2022-11-23T08:31:40.292Z,24.26
2022-11-23T08:34:07.086Z,24.25
2022-11-23T08:36:34.038Z,24.26
2022-11-23T08:39:00.872Z,24.26
2022-11-23T08:41:29.053Z,24.27
2022-11-23T08:43:55.819Z,24.28
2022-11-23T08:46:22.737Z,24.29
2022-11-23T08:48:49.630Z,24.29
2022-11-23T08:51:22.403Z,24.31
2022-11-23T08:53:49.401Z,24.33
2022-11-23T08:56:16.730Z,24.33
2022-11-23T08:58:45.262Z,24.35
2022-11-23T09:01:14.866Z,24.33
2022-11-23T09:03:42.246Z,24.34
2022-11-23T09:06:09.561Z,24.32
2022-11-23T09:08:36.581Z,24.32
2022-11-23T09:11:05.218Z,24.35
2022-11-23T09:13:32.699Z,24.36
2022-11-23T09:16:02.128Z,24.36
2022-11-23T09:18:33.282Z,24.35
2022-11-23T09:21:02.721Z,24.34
2022-11-23T09:23:29.458Z,24.35
2022-11-23T09:25:58.430Z,24.37
2022-11-23T09:28:27.798Z,24.37
2022-11-23T09:30:55.416Z,24.39
2022-11-23T09:33:25.107Z,24.37
2022-11-23T09:35:57.247Z,24.40
2022-11-23T09:38:44.467Z,24.41
2022-11-23T09:41:27.743Z,24.40
2022-11-23T09:44:03.321Z,24.40
2022-11-23T09:46:41.327Z,24.41
2022-11-23T09:49:16.756Z,24.41
2022-11-23T09:51:44.719Z,24.42
2022-11-23T09:54:22.238Z,24.42
2022-11-23T09:56:51.317Z,24.45
2022-11-23T09:59:27.705Z,24.47
2022-11-23T10:01:54.588Z,24.48
2022-11-23T10:04:23.655Z,24.49
2022-11-23T10:06:55.554Z,24.49
2022-11-23T10:09:33.149Z,24.51
2022-11-23T10:12:20.941Z,24.50
2022-11-23T10:15:00.161Z,24.49
2022-11-23T10:17:48.431Z,24.47
2022-11-23T10:20:41.045Z,24.49
2022-11-23T10:23:14.160Z,24.49
2022-11-23T10:25:47.416Z,24.48
2022-11-23T10:28:16.631Z,24.55
2022-11-23T10:30:45.542Z,24.59
2022-11-23T10:33:23.266Z,24.60
2022-11-23T10:35:51.378Z,24.61
2022-11-23T10:38:20.064Z,24.62
2022-11-23T10:40:59.877Z,24.63
2022-11-23T10:43:31.494Z,24.62
2022-11-23T10:46:24.152Z,24.63
2022-11-23T10:48:51.937Z,24.58
2022-11-23T10:51:29.825Z,24.55
2022-11-23T10:54:05.109Z,24.50
2022-11-23T10:56:33.719Z,24.48
2022-11-23T10:59:00.679Z,24.47
2022-11-23T11:01:29.653Z,24.45
2022-11-23T11:04:02.529Z,24.41
2022-11-23T11:06:33.579Z,24.41
2022-11-23T11:09:03.863Z,24.41
2022-11-23T11:11:33.234Z,24.39
2022-11-23T11:14:05.784Z,24.37
2022-11-23T11:16:34.395Z,24.37
2022-11-23T11:19:22.445Z,24.35
2022-11-23T11:21:50.619Z,24.32
2022-11-23T11:24:20.666Z,24.32
2022-11-23T11:26:50.516Z,24.29
2022-11-23T11:29:38.111Z,24.30
2022-11-23T11:32:11.650Z,24.26
2022-11-23T11:34:44.924Z,24.26
2022-11-23T11:37:19.011Z,24.25
2022-11-23T11:39:51.072Z,24.23
2022-11-23T11:42:22.282Z,24.24
2022-11-23T11:44:53.773Z,24.22
2022-11-23T11:47:28.995Z,24.21
2022-11-23T11:50:00.088Z,24.20
2022-11-23T11:52:33.198Z,24.21
2022-11-23T11:55:06.056Z,24.21
2022-11-23T11:57:37.549Z,24.16
2022-11-23T12:00:07.557Z,24.16
2022-11-23T12:02:39.677Z,24.15
2022-11-23T12:05:14.052Z,24.13
2022-11-23T12:07:49.705Z,24.13
2022-11-23T12:10:21.588Z,24.12
2022-11-23T12:12:52.118Z,24.11
2022-11-23T12:18:25.368Z,24.05
2022-11-23T12:21:02.766Z,24.07
2022-11-23T12:23:44.650Z,24.08
2022-11-23T12:26:32.555Z,24.10
2022-11-23T12:29:24.639Z,24.07
2022-11-23T12:32:02.868Z,24.05
2022-11-23T12:34:52.365Z,24.05
2022-11-23T12:37:38.420Z,24.03
2022-11-23T12:40:34.386Z,24.06
2022-11-23T12:43:02.896Z,24.05
2022-11-23T12:45:43.917Z,24.04
2022-11-23T12:48:24.740Z,24.04
2022-11-23T12:51:00.480Z,24.04
2022-11-23T12:53:37.807Z,24.02
2022-11-23T12:56:18.290Z,24.01
2022-11-23T12:58:47.967Z,24.00
2022-11-23T13:01:20.375Z,24.00
2022-11-23T13:04:23.173Z,23.99
2022-11-23T13:07:28.466Z,23.96
2022-11-23T13:10:25.506Z,23.96
2022-11-23T13:13:15.840Z,23.94
2022-11-23T13:15:58.206Z,23.92
2022-11-23T13:18:41.388Z,23.92
2022-11-23T13:21:23.000Z,23.93
2022-11-23T13:23:50.155Z,23.92
2022-11-23T13:26:18.850Z,23.91
2022-11-23T13:28:48.088Z,23.91
2022-11-23T13:31:21.483Z,23.91
2022-11-23T13:33:50.130Z,23.90
2022-11-23T13:37:10.625Z,23.89
2022-11-23T13:40:00.265Z,23.87
2022-11-23T13:42:27.838Z,23.87
2022-11-23T13:45:28.582Z,23.86
2022-11-23T13:48:41.204Z,23.83
2022-11-23T13:51:02.405Z,23.82
2022-11-23T13:53:32.555Z,23.83
2022-11-23T13:56:20.061Z,23.83
2022-11-23T13:58:52.523Z,23.81
2022-11-23T14:01:56.561Z,23.84
2022-11-23T14:04:25.491Z,23.80
2022-11-23T14:06:57.346Z,23.79
2022-11-23T14:09:29.779Z,23.79
2022-11-23T14:12:03.091Z,23.81
2022-11-23T14:14:35.987Z,23.82
2022-11-23T14:17:44.188Z,23.79
2022-11-23T14:20:32.638Z,23.79
2022-11-23T14:23:19.383Z,23.79
2022-11-23T14:25:57.685Z,23.77
2022-11-23T14:28:40.915Z,23.76
2022-11-23T14:31:18.851Z,23.79
2022-11-23T14:33:51.345Z,23.77
2022-11-23T14:36:31.718Z,23.75
2022-11-23T14:39:23.701Z,23.77
2022-11-23T14:41:53.574Z,23.76
2022-11-23T14:44:25.154Z,23.74
2022-11-23T14:47:02.102Z,23.75
2022-11-23T14:49:29.085Z,23.75
2022-11-23T14:51:57.980Z,23.75
2022-11-23T14:54:25.926Z,23.70
2022-11-23T14:56:54.699Z,23.72
2022-11-23T14:59:24.599Z,23.72
2022-11-23T15:01:54.402Z,23.72
2022-11-23T15:04:24.719Z,23.70
2022-11-23T15:06:57.195Z,23.70
2022-11-23T15:09:39.762Z,23.71
2022-11-23T15:12:07.924Z,23.70
2022-11-23T15:14:35.117Z,23.70
2022-11-23T15:17:16.034Z,23.70
2022-11-23T15:19:43.050Z,23.68
2022-11-23T15:22:16.428Z,23.66
2022-11-23T15:24:45.350Z,23.67
2022-11-23T15:27:18.968Z,23.67
2022-11-23T15:29:52.412Z,23.66
2022-11-23T15:32:32.649Z,23.67
2022-11-23T15:35:03.095Z,23.69
2022-11-23T15:37:31.412Z,23.68
2022-11-23T15:40:00.613Z,23.67
2022-11-23T15:42:28.465Z,23.67
2022-11-23T15:44:56.032Z,23.67
2022-11-23T15:47:27.539Z,23.66
2022-11-23T15:50:00.215Z,23.67
2022-11-23T15:52:30.449Z,23.66
2022-11-23T15:54:58.188Z,23.67
2022-11-23T15:57:28.179Z,23.66
2022-11-23T15:59:57.564Z,23.68
2022-11-23T16:02:26.224Z,23.68
2022-11-23T16:05:05.178Z,23.67
2022-11-23T16:07:32.483Z,23.68
2022-11-23T16:10:16.473Z,23.68
2022-11-23T16:12:49.989Z,23.68
2022-11-23T16:15:44.024Z,23.68
2022-11-23T16:18:23.145Z,23.66
2022-11-23T16:20:53.407Z,23.64
2022-11-23T16:23:23.811Z,23.63
2022-11-23T16:25:56.774Z,23.64
2022-11-23T16:28:28.840Z,23.64
2022-11-23T16:30:56.467Z,23.64
2022-11-23T16:33:23.422Z,23.64
2022-11-23T16:35:50.658Z,23.65
2022-11-23T16:38:17.826Z,23.65
2022-11-23T16:40:45.673Z,23.67
2022-11-23T16:43:13.591Z,23.68
2022-11-23T16:45:44.356Z,23.72
2022-11-23T16:48:38.281Z,23.78
2022-11-23T16:51:05.830Z,23.82
2022-11-23T16:53:53.461Z,23.87
2022-11-23T16:56:23.500Z,23.90
2022-11-23T16:58:51.571Z,23.94
2022-11-23T17:01:22.323Z,23.99
2022-11-23T17:03:49.508Z,24.03
2022-11-23T17:06:17.554Z,24.08
2022-11-23T17:08:46.198Z,24.12
2022-11-23T17:11:14.589Z,24.17
2022-11-23T17:13:42.187Z,24.23
2022-11-23T17:16:13.790Z,24.27
2022-11-23T17:18:44.107Z,24.31
2022-11-23T17:21:11.334Z,24.34
2022-11-23T17:23:42.922Z,24.40
2022-11-23T17:26:26.967Z,24.42
2022-11-23T17:28:54.301Z,24.44
2022-11-23T17:31:21.592Z,24.48
2022-11-23T17:33:50.075Z,24.50
2022-11-23T17:36:16.926Z,24.51
2022-11-23T17:38:47.084Z,24.52
2022-11-23T17:41:14.590Z,24.52
2022-11-23T17:43:41.746Z,24.55
2022-11-23T17:46:16.483Z,24.56
2022-11-23T17:48:43.353Z,24.58
2022-11-23T17:51:13.159Z,24.57
2022-11-23T17:53:40.317Z,24.59
2022-11-23T17:56:15.274Z,24.59
2022-11-23T17:58:42.067Z,24.59
2022-11-23T18:01:12.819Z,24.60
2022-11-23T18:03:39.684Z,24.61
2022-11-23T18:06:06.943Z,24.60
2022-11-23T18:08:35.131Z,24.62
2022-11-23T18:11:01.875Z,24.63
2022-11-23T18:13:28.706Z,24.63
2022-11-23T18:15:55.697Z,24.63
2022-11-23T18:18:23.750Z,24.63
2022-11-23T18:20:50.569Z,24.64
2022-11-23T18:23:17.404Z,24.64
2022-11-23T18:25:46.453Z,24.63
2022-11-23T18:28:18.603Z,24.64
2022-11-23T18:30:47.950Z,24.64
2022-11-23T18:33:14.911Z,24.64
2022-11-23T18:35:41.644Z,24.64
2022-11-23T18:38:08.449Z,24.63
2022-11-23T18:40:35.375Z,24.62
2022-11-23T18:43:03.491Z,24.63
2022-11-23T18:45:30.273Z,24.62
2022-11-23T18:47:57.306Z,24.62
2022-11-23T18:50:24.034Z,24.62
2022-11-23T18:52:51.110Z,24.60
2022-11-23T18:55:18.011Z,24.61
2022-11-23T18:57:46.050Z,24.61
2022-11-23T19:00:15.894Z,24.60
2022-11-23T19:02:42.759Z,24.60
2022-11-23T19:05:09.736Z,24.60
2022-11-23T19:07:36.547Z,24.60
2022-11-23T19:10:03.441Z,24.60
2022-11-23T19:12:30.849Z,24.60
2022-11-23T19:14:57.576Z,24.61
2022-11-23T19:17:25.851Z,24.61
2022-11-23T19:19:52.767Z,24.57
2022-11-23T19:22:19.594Z,24.59
2022-11-23T19:24:46.352Z,24.58
2022-11-23T19:27:13.156Z,24.58
2022-11-23T19:29:39.961Z,24.57
2022-11-23T19:32:06.978Z,24.56
2022-11-23T19:34:35.181Z,24.56
2022-11-23T19:37:02.100Z,24.56
2022-11-23T19:39:28.861Z,24.55
2022-11-23T19:41:55.706Z,24.56
2022-11-23T19:44:22.432Z,24.59
2022-11-23T19:46:49.389Z,24.58
2022-11-23T19:49:16.253Z,24.58
2022-11-23T19:51:45.272Z,24.56
2022-11-23T19:54:12.063Z,24.56
2022-11-23T19:56:38.926Z,24.57
2022-11-23T19:59:06.376Z,24.57
2022-11-23T20:01:33.421Z,24.57
2022-11-23T20:04:09.741Z,24.56
2022-11-23T20:06:38.715Z,24.56
2022-11-23T20:09:08.767Z,24.55
2022-11-23T20:11:37.929Z,24.56
2022-11-23T20:14:04.772Z,24.56
2022-11-23T20:16:32.674Z,24.56
2022-11-23T20:19:02.111Z,24.57
2022-11-23T20:21:29.903Z,24.57
2022-11-23T20:24:04.012Z,24.56
2022-11-23T20:26:33.844Z,24.55
2022-11-23T20:29:00.617Z,24.56
2022-11-23T20:31:29.126Z,24.57
2022-11-23T20:33:56.983Z,24.58
2022-11-23T20:36:25.196Z,24.58
2022-11-23T20:38:53.273Z,24.58
2022-11-23T20:41:22.388Z,24.60
2022-11-23T20:43:54.091Z,24.60
2022-11-23T20:46:45.641Z,24.59
2022-11-23T20:49:08.237Z,24.58
2022-11-23T20:51:35.510Z,24.60
2022-11-23T20:54:02.440Z,24.59
2022-11-23T20:56:29.417Z,24.58
2022-11-23T20:59:01.298Z,24.57
2022-11-23T21:01:28.663Z,24.56
2022-11-23T21:03:58.416Z,24.54
2022-11-23T21:06:26.243Z,24.53
2022-11-23T21:08:53.821Z,24.50
2022-11-23T21:11:40.794Z,24.52
2022-11-23T21:14:17.567Z,24.51
2022-11-23T21:16:49.122Z,24.50
2022-11-23T21:19:15.907Z,24.51
2022-11-23T21:21:42.671Z,24.49
2022-11-23T21:24:10.123Z,24.48
2022-11-23T21:26:36.954Z,24.46
2022-11-23T21:29:04.671Z,24.44
2022-11-23T21:31:32.827Z,24.44
2022-11-23T21:34:05.104Z,24.43
2022-11-23T21:36:34.487Z,24.41
2022-11-23T21:39:02.759Z,24.41
2022-11-23T21:41:29.815Z,24.42
2022-11-23T21:43:56.791Z,24.39
2022-11-23T21:46:24.585Z,24.40
2022-11-23T21:48:54.091Z,24.37
2022-11-23T21:51:21.838Z,24.36
2022-11-23T21:53:48.589Z,24.34
2022-11-23T21:56:17.047Z,24.34
2022-11-23T21:58:44.186Z,24.31
2022-11-23T22:01:14.511Z,24.29
2022-11-23T22:03:43.237Z,24.27
2022-11-23T22:06:20.041Z,24.27
2022-11-23T22:08:49.275Z,24.26
2022-11-23T22:11:17.742Z,24.27
2022-11-23T22:13:44.998Z,24.24
2022-11-23T22:16:14.612Z,24.24
2022-11-23T22:18:41.503Z,24.22
2022-11-23T22:21:09.437Z,24.22
2022-11-23T22:23:38.335Z,24.20
2022-11-23T22:26:07.541Z,24.21
2022-11-23T22:28:36.272Z,24.21
2022-11-23T22:31:03.285Z,24.19
2022-11-23T22:33:30.508Z,24.18
2022-11-23T22:36:00.364Z,24.17
2022-11-23T22:38:27.594Z,24.17
2022-11-23T22:40:55.782Z,24.15
2022-11-23T22:43:22.907Z,24.14
2022-11-23T22:45:49.813Z,24.14
2022-11-23T22:48:16.775Z,24.15
2022-11-23T22:50:46.386Z,24.12
2022-11-23T22:53:13.166Z,24.11
2022-11-23T22:55:40.237Z,24.11
2022-11-23T22:58:08.576Z,24.10
2022-11-23T23:00:35.378Z,24.08
2022-11-23T23:03:02.317Z,24.07
2022-11-23T23:05:29.187Z,24.08
2022-11-23T23:07:56.247Z,24.07
2022-11-23T23:10:23.301Z,24.08
2022-11-23T23:12:51.661Z,24.07
2022-11-23T23:15:19.951Z,24.06
2022-11-23T23:17:46.737Z,24.06
2022-11-23T23:20:13.772Z,24.05
2022-11-23T23:22:40.615Z,24.05
2022-11-23T23:25:08.527Z,24.04
2022-11-23T23:27:35.483Z,24.04
2022-11-23T23:30:02.280Z,24.02
2022-11-23T23:32:30.472Z,24.01
2022-11-23T23:34:57.277Z,24.00
2022-11-23T23:37:24.634Z,24.00
2022-11-23T23:39:51.475Z,23.99
2022-11-23T23:42:18.274Z,24.00
2022-11-23T23:44:45.155Z,23.98
2022-11-23T23:47:11.986Z,23.99
2022-11-23T23:49:40.151Z,23.98
2022-11-23T23:52:06.953Z,23.97
2022-11-23T23:54:34.116Z,23.97
2022-11-23T23:57:01.043Z,23.96
2022-11-23T23:59:28.009Z,23.96
